Time,TemperatureF,DewpointF,PressureIn,WindDirection,WindDirectionDegrees,WindSpeedMPH,WindSpeedGustMPH,Humidity,HourlyPrecipIn,Conditions,Clouds,dailyrainin,SolarRadiationWatts/m^2,SoftwareType,DateUTC
2013-05-20 00:00:00,76.0,71.0,-100.00,ESE,104,4.0,-999.0,85,-99.99,,,-99.99,0.000000,,2013-05-20 05:00:00,
2013-05-20 00:52:00,76.0,71.0,-100.00,ESE,104,4.0,-999.0,85,-99.99,,,-99.99,0.000000,,2013-05-20 05:52:00,
2013-05-20 03:00:00,75.0,71.0,-100.00,SSW,199,3.0,-999.0,87,-99.99,,,-99.99,0.000000,,2013-05-20 08:00:00,
2013-05-20 03:52:00,75.0,71.0,-100.00,SSW,199,3.0,-999.0,87,-99.99,,,-99.99,0.000000,,2013-05-20 08:52:00,
2013-05-20 04:00:00,74.0,71.0,-100.00,SSW,202,4.0,-999.0,88,-99.99,,,-99.99,0.000000,,2013-05-20 09:00:00,
2013-05-20 04:53:00,74.0,71.0,-100.00,SSW,202,4.0,-999.0,88,-99.99,,,-99.99,0.000000,,2013-05-20 09:53:00,
2013-05-20 05:00:00,73.0,71.0,-100.00,SSW,200,4.0,-999.0,91,-99.99,,,-99.99,0.000000,,2013-05-20 10:00:00,
2013-05-20 05:52:00,73.0,71.0,-100.00,SSW,200,4.0,-999.0,91,-99.99,,,-99.99,0.000000,,2013-05-20 10:52:00,
2013-05-20 06:00:00,74.0,71.0,-100.00,SSW,201,5.0,-999.0,90,-99.99,,,-99.99,0.420000,,2013-05-20 11:00:00,
2013-05-20 06:52:00,74.0,71.0,-100.00,SSW,201,5.0,-999.0,90,-99.99,,,-99.99,0.420000,,2013-05-20 11:52:00,
2013-05-20 07:00:00,74.0,71.0,-100.00,SSW,200,5.0,-999.0,88,-99.99,,,-99.99,35.139999,,2013-05-20 12:00:00,
2013-05-20 07:52:00,74.0,71.0,-100.00,SSW,200,5.0,-999.0,88,-99.99,,,-99.99,35.139999,,2013-05-20 12:52:00,
2013-05-20 08:00:00,76.0,72.0,-100.00,SSW,197,3.0,-999.0,87,-99.99,,,-99.99,121.500000,,2013-05-20 13:00:00,
2013-05-20 08:52:00,76.0,72.0,-100.00,SSW,197,3.0,-999.0,87,-99.99,,,-99.99,121.500000,,2013-05-20 13:52:00,
2013-05-20 09:00:00,79.0,72.0,-100.00,SSW,192,5.0,-999.0,80,-99.99,,,-99.99,367.399994,,2013-05-20 14:00:00,
2013-05-20 09:52:00,79.0,72.0,-100.00,SSW,192,5.0,-999.0,80,-99.99,,,-99.99,367.399994,,2013-05-20 14:52:00,
2013-05-20 10:00:00,81.0,72.0,-100.00,SSW,197,6.0,-999.0,75,-99.99,,,-99.99,536.200012,,2013-05-20 15:00:00,
2013-05-20 10:53:00,81.0,72.0,-100.00,SSW,197,6.0,-999.0,75,-99.99,,,-99.99,536.200012,,2013-05-20 15:53:00,
2013-05-20 11:00:00,82.0,71.0,-100.00,SSW,200,9.0,-999.0,69,-99.99,,,-99.99,658.700012,,2013-05-20 16:00:00,
2013-05-20 11:53:00,82.0,71.0,-100.00,SSW,200,9.0,-999.0,69,-99.99,,,-99.99,658.700012,,2013-05-20 16:53:00,
2013-05-20 12:00:00,83.0,70.0,-100.00,SSW,197,10.0,-999.0,65,-99.99,,,-99.99,649.599976,,2013-05-20 17:00:00,
2013-05-20 12:53:00,83.0,70.0,-100.00,SSW,197,10.0,-999.0,65,-99.99,,,-99.99,649.599976,,2013-05-20 17:53:00,
2013-05-20 13:00:00,86.0,70.0,-100.00,SSW,199,9.0,-999.0,60,-99.99,,,-99.99,729.000000,,2013-05-20 18:00:00,
2013-05-20 13:55:00,86.0,70.0,-100.00,SSW,199,9.0,-999.0,60,-99.99,,,-99.99,729.000000,,2013-05-20 18:55:00,
2013-05-20 14:00:00,87.0,71.0,-100.00,SSW,198,8.0,-999.0,59,-99.99,,,-99.99,603.599976,,2013-05-20 19:00:00,
2013-05-20 14:52:00,87.0,71.0,-100.00,SSW,198,8.0,-999.0,59,-99.99,,,-99.99,603.599976,,2013-05-20 19:52:00,
2013-05-20 15:00:00,87.0,70.0,-100.00,SSW,195,7.0,-999.0,56,-99.99,,,-99.99,749.000000,,2013-05-20 20:00:00,
2013-05-20 15:52:00,87.0,70.0,-100.00,SSW,195,7.0,-999.0,56,-99.99,,,-99.99,749.000000,,2013-05-20 20:52:00,
2013-05-20 16:00:00,88.0,68.0,-100.00,SSW,195,7.0,-999.0,52,-99.99,,,-99.99,635.500000,,2013-05-20 21:00:00,
2013-05-20 16:53:00,88.0,68.0,-100.00,SSW,195,7.0,-999.0,52,-99.99,,,-99.99,635.500000,,2013-05-20 21:53:00,
2013-05-20 17:00:00,89.0,68.0,-100.00,SSW,196,6.0,-999.0,51,-99.99,,,-99.99,534.900024,,2013-05-20 22:00:00,
2013-05-20 17:52:00,89.0,68.0,-100.00,SSW,196,6.0,-999.0,51,-99.99,,,-99.99,534.900024,,2013-05-20 22:52:00,
2013-05-20 18:00:00,89.0,70.0,-100.00,South,191,5.0,-999.0,54,-99.99,,,-99.99,443.200012,,2013-05-20 23:00:00,
2013-05-20 18:53:00,89.0,70.0,-100.00,South,191,5.0,-999.0,54,-99.99,,,-99.99,443.200012,,2013-05-20 23:53:00,
2013-05-20 19:00:00,86.0,71.0,-100.00,SW,235,2.0,-999.0,60,-99.99,,,-99.99,213.399994,,2013-05-21 00:00:00,
2013-05-20 19:52:00,86.0,71.0,-100.00,SW,235,2.0,-999.0,60,-99.99,,,-99.99,213.399994,,2013-05-21 00:52:00,
2013-05-20 20:00:00,82.0,72.0,-100.00,East,81,2.0,-999.0,70,-99.99,,,-99.99,40.470001,,2013-05-21 01:00:00,
2013-05-20 20:53:00,82.0,72.0,-100.00,East,81,2.0,-999.0,70,-99.99,,,-99.99,40.470001,,2013-05-21 01:53:00,
2013-05-20 21:00:00,80.0,71.0,-100.00,East,82,1.0,-999.0,74,-99.99,,,-99.99,0.230000,,2013-05-21 02:00:00,
2013-05-20 21:52:00,80.0,71.0,-100.00,East,82,1.0,-999.0,74,-99.99,,,-99.99,0.230000,,2013-05-21 02:52:00,
2013-05-20 22:00:00,80.0,71.0,-100.00,North,357,1.0,-999.0,75,-99.99,,,-99.99,0.000000,,2013-05-21 03:00:00,
2013-05-20 22:53:00,80.0,71.0,-100.00,North,357,1.0,-999.0,75,-99.99,,,-99.99,0.000000,,2013-05-21 03:53:00,
2013-05-20 23:00:00,78.0,71.0,-100.00,North,3,1.0,-999.0,78,-99.99,,,-99.99,0.000000,,2013-05-21 04:00:00,
2013-05-20 23:53:00,78.0,71.0,-100.00,North,3,1.0,-999.0,78,-99.99,,,-99.99,0.000000,,2013-05-21 04:53:00,